sensor_id;sensor_type;location;lat;lon;timestamp;P1;durP1;ratioP1;P2;durP2;ratioP2
14858;SDS011;7521;51.700;6.874;2023-04-01T00:02:46;4.13;;;1.07;;
14858;SDS011;7521;51.700;6.874;2023-04-01T00:05:52;3.37;;;0.97;;
14858;SDS011;7521;51.700;6.874;2023-04-01T00:08:58;4.37;;;1.10;;
14858;SDS011;7521;51.700;6.874;2023-04-01T00:12:03;5.05;;;1.10;;
14858;SDS011;7521;51.700;6.874;2023-04-01T00:15:09;5.63;;;1.25;;
14858;SDS011;7521;51.700;6.874;2023-04-01T00:18:14;4.40;;;1.10;;
14858;SDS011;7521;51.700;6.874;2023-04-01T00:21:20;3.67;;;0.83;;
14858;SDS011;7521;51.700;6.874;2023-04-01T00:24:27;3.23;;;0.77;;
14858;SDS011;7521;51.700;6.874;2023-04-01T00:27:32;4.43;;;1.27;;
14858;SDS011;7521;51.700;6.874;2023-04-01T00:30:37;4.23;;;1.23;;
14858;SDS011;7521;51.700;6.874;2023-04-01T00:33:42;5.23;;;1.10;;
14858;SDS011;7521;51.700;6.874;2023-04-01T00:36:47;3.23;;;1.10;;
14858;SDS011;7521;51.700;6.874;2023-04-01T00:39:53;5.00;;;1.30;;
14858;SDS011;7521;51.700;6.874;2023-04-01T00:42:58;7.37;;;1.50;;
14858;SDS011;7521;51.700;6.874;2023-04-01T00:46:03;4.40;;;1.23;;
14858;SDS011;7521;51.700;6.874;2023-04-01T00:49:09;4.17;;;1.23;;
14858;SDS011;7521;51.700;6.874;2023-04-01T00:52:15;6.50;;;1.77;;
14858;SDS011;7521;51.700;6.874;2023-04-01T00:55:21;4.17;;;1.13;;
14858;SDS011;7521;51.700;6.874;2023-04-01T00:58:29;4.07;;;1.20;;
14858;SDS011;7521;51.700;6.874;2023-04-01T01:01:35;3.00;;;1.10;;
14858;SDS011;7521;51.700;6.874;2023-04-01T01:04:40;3.83;;;1.17;;
14858;SDS011;7521;51.700;6.874;2023-04-01T01:07:53;3.87;;;1.43;;
14858;SDS011;7521;51.700;6.874;2023-04-01T01:11:01;3.57;;;1.30;;
14858;SDS011;7521;51.700;6.874;2023-04-01T01:27:17;2.97;;;1.07;;
14858;SDS011;7521;51.700;6.874;2023-04-01T01:33:46;1.53;;;0.90;;
14858;SDS011;7521;51.700;6.874;2023-04-01T01:36:54;1.40;;;0.60;;
14858;SDS011;7521;51.700;6.874;2023-04-01T01:40:03;1.47;;;0.67;;
14858;SDS011;7521;51.700;6.874;2023-04-01T01:43:09;1.70;;;0.50;;
14858;SDS011;7521;51.700;6.874;2023-04-01T01:46:19;2.67;;;0.60;;
14858;SDS011;7521;51.700;6.874;2023-04-01T01:49:26;1.63;;;0.60;;
14858;SDS011;7521;51.700;6.874;2023-04-01T01:52:32;1.90;;;0.70;;
14858;SDS011;7521;51.700;6.874;2023-04-01T01:55:38;1.98;;;0.60;;
14858;SDS011;7521;51.700;6.874;2023-04-01T01:58:54;2.50;;;0.80;;
14858;SDS011;7521;51.700;6.874;2023-04-01T02:02:01;2.20;;;0.87;;
14858;SDS011;7521;51.700;6.874;2023-04-01T02:05:15;2.30;;;0.67;;
14858;SDS011;7521;51.700;6.874;2023-04-01T02:08:22;2.80;;;0.90;;
14858;SDS011;7521;51.700;6.874;2023-04-01T02:11:32;7.00;;;0.90;;
14858;SDS011;7521;51.700;6.874;2023-04-01T02:14:39;1.40;;;0.70;;
14858;SDS011;7521;51.700;6.874;2023-04-01T02:17:46;2.50;;;0.80;;
14858;SDS011;7521;51.700;6.874;2023-04-01T02:20:52;2.00;;;0.87;;
14858;SDS011;7521;51.700;6.874;2023-04-01T02:23:58;2.47;;;1.00;;
14858;SDS011;7521;51.700;6.874;2023-04-01T02:27:04;2.53;;;1.17;;
14858;SDS011;7521;51.700;6.874;2023-04-01T02:30:10;2.07;;;1.00;;
14858;SDS011;7521;51.700;6.874;2023-04-01T02:33:15;2.37;;;0.90;;
14858;SDS011;7521;51.700;6.874;2023-04-01T02:36:21;2.57;;;1.00;;
14858;SDS011;7521;51.700;6.874;2023-04-01T02:39:26;2.97;;;1.15;;
14858;SDS011;7521;51.700;6.874;2023-04-01T02:42:32;3.03;;;1.00;;
14858;SDS011;7521;51.700;6.874;2023-04-01T02:45:37;2.10;;;0.90;;
14858;SDS011;7521;51.700;6.874;2023-04-01T02:48:43;2.07;;;0.70;;
14858;SDS011;7521;51.700;6.874;2023-04-01T02:51:48;3.05;;;0.77;;
14858;SDS011;7521;51.700;6.874;2023-04-01T02:54:53;3.90;;;0.87;;
14858;SDS011;7521;51.700;6.874;2023-04-01T02:57:58;1.60;;;0.97;;
14858;SDS011;7521;51.700;6.874;2023-04-01T03:01:03;2.07;;;0.80;;
14858;SDS011;7521;51.700;6.874;2023-04-01T03:04:09;1.67;;;0.70;;
14858;SDS011;7521;51.700;6.874;2023-04-01T03:07:14;2.57;;;0.70;;
14858;SDS011;7521;51.700;6.874;2023-04-01T03:10:19;1.17;;;0.67;;
14858;SDS011;7521;51.700;6.874;2023-04-01T03:13:24;2.03;;;0.70;;
14858;SDS011;7521;51.700;6.874;2023-04-01T03:16:30;1.83;;;0.70;;
14858;SDS011;7521;51.700;6.874;2023-04-01T03:19:36;1.30;;;0.70;;
14858;SDS011;7521;51.700;6.874;2023-04-01T03:22:41;0.85;;;0.60;;
14858;SDS011;7521;51.700;6.874;2023-04-01T03:25:46;1.80;;;0.50;;
14858;SDS011;7521;51.700;6.874;2023-04-01T03:28:52;1.33;;;0.60;;
14858;SDS011;7521;51.700;6.874;2023-04-01T03:31:57;2.10;;;0.80;;
14858;SDS011;7521;51.700;6.874;2023-04-01T03:35:03;3.93;;;0.63;;
14858;SDS011;7521;51.700;6.874;2023-04-01T03:38:09;1.90;;;0.70;;
14858;SDS011;7521;51.700;6.874;2023-04-01T03:41:15;1.65;;;0.82;;
14858;SDS011;7521;51.700;6.874;2023-04-01T03:44:20;1.00;;;0.70;;
14858;SDS011;7521;51.700;6.874;2023-04-01T03:47:26;1.42;;;0.73;;
14858;SDS011;7521;51.700;6.874;2023-04-01T03:50:31;1.23;;;0.70;;
14858;SDS011;7521;51.700;6.874;2023-04-01T03:53:36;1.85;;;0.95;;
14858;SDS011;7521;51.700;6.874;2023-04-01T03:56:41;1.58;;;0.90;;
14858;SDS011;7521;51.700;6.874;2023-04-01T03:59:46;2.53;;;1.20;;
14858;SDS011;7521;51.700;6.874;2023-04-01T04:02:52;1.88;;;0.98;;
14858;SDS011;7521;51.700;6.874;2023-04-01T04:05:57;1.42;;;0.90;;
14858;SDS011;7521;51.700;6.874;2023-04-01T04:09:02;1.60;;;1.00;;
14858;SDS011;7521;51.700;6.874;2023-04-01T04:12:07;2.07;;;1.00;;
14858;SDS011;7521;51.700;6.874;2023-04-01T04:15:13;1.35;;;1.10;;
14858;SDS011;7521;51.700;6.874;2023-04-01T04:18:18;1.02;;;0.93;;
14858;SDS011;7521;51.700;6.874;2023-04-01T04:21:23;1.30;;;1.00;;
14858;SDS011;7521;51.700;6.874;2023-04-01T04:24:28;2.43;;;1.30;;
14858;SDS011;7521;51.700;6.874;2023-04-01T04:27:34;1.50;;;1.30;;
14858;SDS011;7521;51.700;6.874;2023-04-01T04:30:39;1.87;;;1.20;;
14858;SDS011;7521;51.700;6.874;2023-04-01T04:33:44;2.35;;;1.17;;
14858;SDS011;7521;51.700;6.874;2023-04-01T04:36:49;1.40;;;1.30;;
14858;SDS011;7521;51.700;6.874;2023-04-01T04:39:55;3.13;;;1.60;;
14858;SDS011;7521;51.700;6.874;2023-04-01T04:43:00;2.30;;;1.70;;
14858;SDS011;7521;51.700;6.874;2023-04-01T04:46:08;1.95;;;1.60;;
14858;SDS011;7521;51.700;6.874;2023-04-01T04:49:14;2.00;;;1.77;;
14858;SDS011;7521;51.700;6.874;2023-04-01T04:52:19;2.53;;;1.93;;
14858;SDS011;7521;51.700;6.874;2023-04-01T04:55:24;3.25;;;2.22;;
14858;SDS011;7521;51.700;6.874;2023-04-01T04:58:29;3.47;;;2.60;;
14858;SDS011;7521;51.700;6.874;2023-04-01T05:01:35;2.93;;;2.50;;
14858;SDS011;7521;51.700;6.874;2023-04-01T05:04:40;3.85;;;2.42;;
14858;SDS011;7521;51.700;6.874;2023-04-01T05:07:45;2.63;;;2.43;;
14858;SDS011;7521;51.700;6.874;2023-04-01T05:10:50;2.30;;;2.10;;
14858;SDS011;7521;51.700;6.874;2023-04-01T05:13:55;3.40;;;2.55;;
14858;SDS011;7521;51.700;6.874;2023-04-01T05:17:00;2.88;;;2.50;;
14858;SDS011;7521;51.700;6.874;2023-04-01T05:20:06;2.60;;;2.33;;
14858;SDS011;7521;51.700;6.874;2023-04-01T05:23:11;2.73;;;2.07;;
14858;SDS011;7521;51.700;6.874;2023-04-01T05:26:17;2.90;;;2.60;;
14858;SDS011;7521;51.700;6.874;2023-04-01T05:29:23;3.95;;;2.30;;
14858;SDS011;7521;51.700;6.874;2023-04-01T05:32:28;2.60;;;2.40;;
14858;SDS011;7521;51.700;6.874;2023-04-01T05:35:33;2.60;;;2.22;;
14858;SDS011;7521;51.700;6.874;2023-04-01T05:38:38;2.63;;;2.43;;
14858;SDS011;7521;51.700;6.874;2023-04-01T05:41:43;3.35;;;2.50;;
14858;SDS011;7521;51.700;6.874;2023-04-01T05:44:49;3.37;;;3.07;;
14858;SDS011;7521;51.700;6.874;2023-04-01T05:47:55;3.42;;;2.90;;
14858;SDS011;7521;51.700;6.874;2023-04-01T05:51:00;4.45;;;3.72;;
14858;SDS011;7521;51.700;6.874;2023-04-01T05:54:05;3.90;;;3.53;;
14858;SDS011;7521;51.700;6.874;2023-04-01T05:57:10;5.90;;;4.63;;
14858;SDS011;7521;51.700;6.874;2023-04-01T06:00:16;5.40;;;4.70;;
14858;SDS011;7521;51.700;6.874;2023-04-01T06:03:21;5.60;;;4.90;;
14858;SDS011;7521;51.700;6.874;2023-04-01T06:06:27;6.55;;;4.40;;
14858;SDS011;7521;51.700;6.874;2023-04-01T06:09:32;4.83;;;4.40;;
14858;SDS011;7521;51.700;6.874;2023-04-01T06:12:45;5.13;;;4.10;;
14858;SDS011;7521;51.700;6.874;2023-04-01T06:19:16;5.03;;;4.53;;
14858;SDS011;7521;51.700;6.874;2023-04-01T06:22:46;5.00;;;4.50;;
14858;SDS011;7521;51.700;6.874;2023-04-01T06:29:25;6.10;;;5.17;;
14858;SDS011;7521;51.700;6.874;2023-04-01T06:39:35;6.57;;;5.20;;
14858;SDS011;7521;51.700;6.874;2023-04-01T06:49:06;7.73;;;6.87;;
14858;SDS011;7521;51.700;6.874;2023-04-01T06:55:32;7.20;;;6.50;;
14858;SDS011;7521;51.700;6.874;2023-04-01T06:58:45;8.27;;;6.93;;
14858;SDS011;7521;51.700;6.874;2023-04-01T07:01:52;7.20;;;6.50;;
14858;SDS011;7521;51.700;6.874;2023-04-01T07:04:58;7.90;;;7.10;;
14858;SDS011;7521;51.700;6.874;2023-04-01T07:08:06;8.67;;;7.73;;
14858;SDS011;7521;51.700;6.874;2023-04-01T07:11:18;8.50;;;7.53;;
14858;SDS011;7521;51.700;6.874;2023-04-01T07:14:29;9.13;;;7.73;;
14858;SDS011;7521;51.700;6.874;2023-04-01T07:17:35;6.93;;;6.30;;
14858;SDS011;7521;51.700;6.874;2023-04-01T07:20:41;6.97;;;6.27;;
14858;SDS011;7521;51.700;6.874;2023-04-01T07:23:47;6.70;;;5.97;;
14858;SDS011;7521;51.700;6.874;2023-04-01T07:26:53;6.60;;;6.00;;
14858;SDS011;7521;51.700;6.874;2023-04-01T07:30:00;7.20;;;6.50;;
14858;SDS011;7521;51.700;6.874;2023-04-01T07:33:16;6.57;;;5.97;;
14858;SDS011;7521;51.700;6.874;2023-04-01T07:36:38;6.10;;;5.50;;
14858;SDS011;7521;51.700;6.874;2023-04-01T07:43:05;5.70;;;5.20;;
14858;SDS011;7521;51.700;6.874;2023-04-01T07:46:17;6.17;;;5.30;;
14858;SDS011;7521;51.700;6.874;2023-04-01T07:56:19;5.53;;;5.03;;
14858;SDS011;7521;51.700;6.874;2023-04-01T07:59:33;5.43;;;4.87;;
14858;SDS011;7521;51.700;6.874;2023-04-01T08:02:53;5.03;;;4.53;;
14858;SDS011;7521;51.700;6.874;2023-04-01T08:06:05;4.80;;;4.37;;
14858;SDS011;7521;51.700;6.874;2023-04-01T08:09:20;4.33;;;3.93;;
14858;SDS011;7521;51.700;6.874;2023-04-01T08:12:38;5.13;;;4.10;;
14858;SDS011;7521;51.700;6.874;2023-04-01T08:22:04;6.43;;;5.83;;
14858;SDS011;7521;51.700;6.874;2023-04-01T08:25:21;7.50;;;6.80;;
14858;SDS011;7521;51.700;6.874;2023-04-01T08:28:37;7.73;;;6.90;;
14858;SDS011;7521;51.700;6.874;2023-04-01T08:35:06;9.73;;;7.80;;
14858;SDS011;7521;51.700;6.874;2023-04-01T08:38:13;8.70;;;7.67;;
14858;SDS011;7521;51.700;6.874;2023-04-01T08:41:25;10.70;;;7.47;;
14858;SDS011;7521;51.700;6.874;2023-04-01T08:48:15;8.97;;;7.60;;
14858;SDS011;7521;51.700;6.874;2023-04-01T09:14:45;9.97;;;7.97;;
14858;SDS011;7521;51.700;6.874;2023-04-01T09:21:01;8.60;;;7.45;;
14858;SDS011;7521;51.700;6.874;2023-04-01T09:27:54;9.97;;;7.03;;
14858;SDS011;7521;51.700;6.874;2023-04-01T09:37:21;8.48;;;6.43;;
14858;SDS011;7521;51.700;6.874;2023-04-01T09:54:00;3.83;;;2.70;;
14858;SDS011;7521;51.700;6.874;2023-04-01T10:07:21;3.40;;;2.80;;
14858;SDS011;7521;51.700;6.874;2023-04-01T10:13:53;4.43;;;3.23;;
14858;SDS011;7521;51.700;6.874;2023-04-01T10:17:08;2.93;;;2.63;;
14858;SDS011;7521;51.700;6.874;2023-04-01T10:20:36;4.40;;;2.80;;
14858;SDS011;7521;51.700;6.874;2023-04-01T10:23:49;4.13;;;3.70;;
14858;SDS011;7521;51.700;6.874;2023-04-01T10:36:55;3.87;;;3.23;;
14858;SDS011;7521;51.700;6.874;2023-04-01T10:46:50;3.70;;;2.90;;
14858;SDS011;7521;51.700;6.874;2023-04-01T10:53:10;3.58;;;3.10;;
14858;SDS011;7521;51.700;6.874;2023-04-01T10:59:57;3.20;;;2.80;;
14858;SDS011;7521;51.700;6.874;2023-04-01T11:16:04;1.40;;;1.30;;
14858;SDS011;7521;51.700;6.874;2023-04-01T11:22:33;1.37;;;1.00;;
14858;SDS011;7521;51.700;6.874;2023-04-01T11:35:42;3.07;;;1.30;;
14858;SDS011;7521;51.700;6.874;2023-04-01T11:39:11;1.70;;;1.60;;
14858;SDS011;7521;51.700;6.874;2023-04-01T11:42:30;1.70;;;1.50;;
14858;SDS011;7521;51.700;6.874;2023-04-01T11:45:40;5.13;;;2.70;;
14858;SDS011;7521;51.700;6.874;2023-04-01T11:48:56;3.73;;;2.70;;
14858;SDS011;7521;51.700;6.874;2023-04-01T11:52:08;3.20;;;2.63;;
14858;SDS011;7521;51.700;6.874;2023-04-01T12:08:21;2.37;;;2.00;;
14858;SDS011;7521;51.700;6.874;2023-04-01T12:11:32;2.57;;;2.00;;
14858;SDS011;7521;51.700;6.874;2023-04-01T12:21:17;3.13;;;2.00;;
14858;SDS011;7521;51.700;6.874;2023-04-01T12:31:02;3.13;;;2.80;;
14858;SDS011;7521;51.700;6.874;2023-04-01T12:34:19;4.53;;;3.20;;
14858;SDS011;7521;51.700;6.874;2023-04-01T12:37:49;4.03;;;3.33;;
14858;SDS011;7521;51.700;6.874;2023-04-01T12:44:20;8.30;;;5.77;;
14858;SDS011;7521;51.700;6.874;2023-04-01T12:47:42;6.73;;;5.80;;
14858;SDS011;7521;51.700;6.874;2023-04-01T12:51:09;7.40;;;5.93;;
14858;SDS011;7521;51.700;6.874;2023-04-01T12:54:25;6.63;;;5.53;;
14858;SDS011;7521;51.700;6.874;2023-04-01T13:07:40;9.33;;;6.07;;
14858;SDS011;7521;51.700;6.874;2023-04-01T13:11:05;6.30;;;5.33;;
14858;SDS011;7521;51.700;6.874;2023-04-01T13:20:42;9.70;;;6.30;;
14858;SDS011;7521;51.700;6.874;2023-04-01T13:26:58;6.85;;;6.10;;
14858;SDS011;7521;51.700;6.874;2023-04-01T13:36:38;8.77;;;6.33;;
14858;SDS011;7521;51.700;6.874;2023-04-01T13:46:05;8.70;;;7.03;;
14858;SDS011;7521;51.700;6.874;2023-04-01T13:55:48;9.00;;;7.47;;
14858;SDS011;7521;51.700;6.874;2023-04-01T14:12:13;8.00;;;7.17;;
14858;SDS011;7521;51.700;6.874;2023-04-01T14:28:18;9.43;;;7.97;;
14858;SDS011;7521;51.700;6.874;2023-04-01T14:41:39;10.77;;;8.13;;
14858;SDS011;7521;51.700;6.874;2023-04-01T14:48:21;8.13;;;7.13;;
14858;SDS011;7521;51.700;6.874;2023-04-01T14:54:35;10.30;;;6.57;;
14858;SDS011;7521;51.700;6.874;2023-04-01T14:57:41;9.13;;;6.90;;
14858;SDS011;7521;51.700;6.874;2023-04-01T15:00:48;9.00;;;6.47;;
14858;SDS011;7521;51.700;6.874;2023-04-01T15:04:08;7.90;;;5.70;;
14858;SDS011;7521;51.700;6.874;2023-04-01T15:07:21;6.47;;;5.87;;
14858;SDS011;7521;51.700;6.874;2023-04-01T15:10:43;7.30;;;5.90;;
14858;SDS011;7521;51.700;6.874;2023-04-01T15:14:02;6.00;;;5.37;;
14858;SDS011;7521;51.700;6.874;2023-04-01T15:23:48;6.07;;;5.47;;
14858;SDS011;7521;51.700;6.874;2023-04-01T15:33:49;6.43;;;5.70;;
14858;SDS011;7521;51.700;6.874;2023-04-01T15:49:39;7.77;;;6.97;;
14858;SDS011;7521;51.700;6.874;2023-04-01T15:59:50;8.47;;;7.67;;
14858;SDS011;7521;51.700;6.874;2023-04-01T16:07:01;7.43;;;6.73;;
14858;SDS011;7521;51.700;6.874;2023-04-01T16:19:49;6.67;;;6.00;;
14858;SDS011;7521;51.700;6.874;2023-04-01T16:23:00;6.90;;;6.00;;
14858;SDS011;7521;51.700;6.874;2023-04-01T16:26:08;6.30;;;5.33;;
14858;SDS011;7521;51.700;6.874;2023-04-01T16:29:32;14.10;;;6.20;;
14858;SDS011;7521;51.700;6.874;2023-04-01T16:32:50;5.40;;;4.90;;
14858;SDS011;7521;51.700;6.874;2023-04-01T16:42:26;5.80;;;5.20;;
14858;SDS011;7521;51.700;6.874;2023-04-01T16:45:37;6.50;;;5.80;;
14858;SDS011;7521;51.700;6.874;2023-04-01T16:52:36;6.27;;;4.53;;
14858;SDS011;7521;51.700;6.874;2023-04-01T16:55:55;5.77;;;5.13;;
14858;SDS011;7521;51.700;6.874;2023-04-01T17:02:12;6.47;;;5.40;;
14858;SDS011;7521;51.700;6.874;2023-04-01T17:05:18;6.37;;;5.20;;
14858;SDS011;7521;51.700;6.874;2023-04-01T17:11:53;4.80;;;4.30;;
14858;SDS011;7521;51.700;6.874;2023-04-01T17:18:08;5.30;;;4.10;;
14858;SDS011;7521;51.700;6.874;2023-04-01T17:21:38;4.27;;;3.87;;
14858;SDS011;7521;51.700;6.874;2023-04-01T17:24:51;5.37;;;3.60;;
14858;SDS011;7521;51.700;6.874;2023-04-01T17:34:33;3.85;;;2.80;;
14858;SDS011;7521;51.700;6.874;2023-04-01T17:38:01;4.13;;;3.30;;
14858;SDS011;7521;51.700;6.874;2023-04-01T17:44:39;3.23;;;2.93;;
14858;SDS011;7521;51.700;6.874;2023-04-01T17:47:52;3.63;;;3.27;;
14858;SDS011;7521;51.700;6.874;2023-04-01T17:54:18;3.73;;;3.33;;
14858;SDS011;7521;51.700;6.874;2023-04-01T17:57:41;3.30;;;3.00;;
14858;SDS011;7521;51.700;6.874;2023-04-01T18:00:59;2.70;;;2.50;;
14858;SDS011;7521;51.700;6.874;2023-04-01T18:10:48;3.00;;;1.80;;
14858;SDS011;7521;51.700;6.874;2023-04-01T18:17:24;2.00;;;1.80;;
14858;SDS011;7521;51.700;6.874;2023-04-01T18:20:36;2.27;;;1.70;;
14858;SDS011;7521;51.700;6.874;2023-04-01T18:23:56;1.47;;;1.37;;
14858;SDS011;7521;51.700;6.874;2023-04-01T18:30:15;1.77;;;1.40;;
14858;SDS011;7521;51.700;6.874;2023-04-01T18:36:53;1.50;;;1.40;;
14858;SDS011;7521;51.700;6.874;2023-04-01T18:50:56;1.53;;;1.40;;
14858;SDS011;7521;51.700;6.874;2023-04-01T18:53:40;2.40;;;1.47;;
14858;SDS011;7521;51.700;6.874;2023-04-01T18:56:46;1.20;;;1.10;;
14858;SDS011;7521;51.700;6.874;2023-04-01T19:02:58;1.53;;;1.43;;
14858;SDS011;7521;51.700;6.874;2023-04-01T19:09:51;1.40;;;1.30;;
14858;SDS011;7521;51.700;6.874;2023-04-01T19:22:56;2.37;;;2.17;;
14858;SDS011;7521;51.700;6.874;2023-04-01T19:26:03;2.50;;;2.30;;
14858;SDS011;7521;51.700;6.874;2023-04-01T19:29:18;2.40;;;2.27;;
14858;SDS011;7521;51.700;6.874;2023-04-01T19:32:33;2.30;;;2.10;;
14858;SDS011;7521;51.700;6.874;2023-04-01T19:38:55;2.40;;;2.20;;
14858;SDS011;7521;51.700;6.874;2023-04-01T19:51:59;2.37;;;2.13;;
14858;SDS011;7521;51.700;6.874;2023-04-01T19:58:16;2.00;;;1.90;;
14858;SDS011;7521;51.700;6.874;2023-04-01T20:01:46;2.07;;;1.90;;
14858;SDS011;7521;51.700;6.874;2023-04-01T20:04:53;1.67;;;1.57;;
14858;SDS011;7521;51.700;6.874;2023-04-01T20:08:11;1.70;;;1.60;;
14858;SDS011;7521;51.700;6.874;2023-04-01T20:11:21;1.87;;;1.77;;
14858;SDS011;7521;51.700;6.874;2023-04-01T20:14:45;3.50;;;1.90;;
14858;SDS011;7521;51.700;6.874;2023-04-01T20:17:53;2.30;;;2.10;;
14858;SDS011;7521;51.700;6.874;2023-04-01T20:21:02;2.13;;;2.03;;
14858;SDS011;7521;51.700;6.874;2023-04-01T20:24:15;2.03;;;1.90;;
14858;SDS011;7521;51.700;6.874;2023-04-01T20:27:23;2.27;;;2.07;;
14858;SDS011;7521;51.700;6.874;2023-04-01T20:46:54;2.10;;;1.90;;
14858;SDS011;7521;51.700;6.874;2023-04-01T20:56:46;2.20;;;2.00;;
14858;SDS011;7521;51.700;6.874;2023-04-01T21:10:08;3.00;;;2.30;;
14858;SDS011;7521;51.700;6.874;2023-04-01T21:16:26;4.22;;;3.08;;
14858;SDS011;7521;51.700;6.874;2023-04-01T21:42:42;3.33;;;3.03;;
14858;SDS011;7521;51.700;6.874;2023-04-01T21:49:19;4.00;;;3.57;;
14858;SDS011;7521;51.700;6.874;2023-04-01T21:55:55;3.80;;;3.13;;
14858;SDS011;7521;51.700;6.874;2023-04-01T21:59:22;3.17;;;2.87;;
14858;SDS011;7521;51.700;6.874;2023-04-01T22:08:59;3.93;;;2.60;;
14858;SDS011;7521;51.700;6.874;2023-04-01T22:15:28;2.67;;;2.47;;
14858;SDS011;7521;51.700;6.874;2023-04-01T22:18:47;2.60;;;2.40;;
14858;SDS011;7521;51.700;6.874;2023-04-01T22:28:38;2.60;;;2.40;;
14858;SDS011;7521;51.700;6.874;2023-04-01T22:31:49;7.60;;;2.77;;
14858;SDS011;7521;51.700;6.874;2023-04-01T22:35:00;2.60;;;2.40;;
14858;SDS011;7521;51.700;6.874;2023-04-01T22:41:17;2.70;;;2.47;;
14858;SDS011;7521;51.700;6.874;2023-04-01T22:44:35;3.80;;;2.10;;
14858;SDS011;7521;51.700;6.874;2023-04-01T22:47:46;2.67;;;2.47;;
14858;SDS011;7521;51.700;6.874;2023-04-01T22:51:05;3.10;;;2.33;;
14858;SDS011;7521;51.700;6.874;2023-04-01T22:57:38;2.73;;;2.30;;
14858;SDS011;7521;51.700;6.874;2023-04-01T23:00:46;2.53;;;2.33;;
14858;SDS011;7521;51.700;6.874;2023-04-01T23:03:52;2.40;;;2.20;;
14858;SDS011;7521;51.700;6.874;2023-04-01T23:06:57;2.38;;;2.17;;
14858;SDS011;7521;51.700;6.874;2023-04-01T23:10:05;4.60;;;2.40;;
14858;SDS011;7521;51.700;6.874;2023-04-01T23:13:15;3.13;;;2.30;;
14858;SDS011;7521;51.700;6.874;2023-04-01T23:16:23;3.07;;;2.10;;
14858;SDS011;7521;51.700;6.874;2023-04-01T23:19:33;2.80;;;2.00;;
14858;SDS011;7521;51.700;6.874;2023-04-01T23:29:12;3.03;;;2.50;;
14858;SDS011;7521;51.700;6.874;2023-04-01T23:32:18;3.00;;;2.47;;
14858;SDS011;7521;51.700;6.874;2023-04-01T23:35:24;2.83;;;2.40;;
14858;SDS011;7521;51.700;6.874;2023-04-01T23:38:29;1.83;;;1.73;;
14858;SDS011;7521;51.700;6.874;2023-04-01T23:41:34;3.10;;;2.57;;
14858;SDS011;7521;51.700;6.874;2023-04-01T23:44:40;2.70;;;2.47;;
14858;SDS011;7521;51.700;6.874;2023-04-01T23:47:46;2.87;;;2.50;;
14858;SDS011;7521;51.700;6.874;2023-04-01T23:50:53;3.00;;;2.70;;
14858;SDS011;7521;51.700;6.874;2023-04-01T23:54:03;2.67;;;2.47;;
14858;SDS011;7521;51.700;6.874;2023-04-01T23:57:13;3.80;;;2.80;;
